createdAt,value
2023-04-18T00:00:36.808Z,102870.34
2023-04-18T00:03:04.666Z,102866.47
2023-04-18T00:05:31.425Z,102871.06
2023-04-18T00:07:57.817Z,102863.47
2023-04-18T00:10:24.265Z,102866.38
2023-04-18T00:12:51.366Z,102865.88
2023-04-18T00:15:18.371Z,102875.66
2023-04-18T00:17:44.775Z,102865.75
2023-04-18T00:20:12.732Z,102871.28
2023-04-18T00:22:46.662Z,102865.91
2023-04-18T00:25:13.179Z,102869.94
2023-04-18T00:27:39.584Z,102866.94
2023-04-18T00:30:07.127Z,102870.16
2023-04-18T00:32:33.560Z,102874.69
2023-04-18T00:34:59.970Z,102867.28
2023-04-18T00:37:27.013Z,102873.50
2023-04-18T00:39:53.895Z,102869.97
2023-04-18T00:42:25.393Z,102872.66
2023-04-18T00:44:51.791Z,102864.94
2023-04-18T00:47:18.209Z,102874.72
2023-04-18T00:49:45.470Z,102868.97
2023-04-18T00:52:12.465Z,102865.59
2023-04-18T00:54:40.616Z,102866.44
2023-04-18T00:57:07.834Z,102873.00
2023-04-18T00:59:35.421Z,102859.53
2023-04-18T01:02:05.207Z,102861.88
2023-04-18T01:04:34.553Z,102868.41
2023-04-18T01:07:02.111Z,102861.53
2023-04-18T01:09:28.663Z,102864.72
2023-04-18T01:11:55.048Z,102857.00
2023-04-18T01:14:21.648Z,102865.22
2023-04-18T01:16:50.986Z,102866.56
2023-04-18T01:19:17.453Z,102866.22
2023-04-18T01:21:44.114Z,102858.81
2023-04-18T01:24:12.744Z,102861.31
2023-04-18T01:26:40.050Z,102863.00
2023-04-18T01:29:06.946Z,102860.47
2023-04-18T01:31:37.542Z,102858.09
2023-04-18T01:34:05.314Z,102858.81
2023-04-18T01:36:32.597Z,102853.56
2023-04-18T01:38:59.696Z,102852.25
2023-04-18T01:41:28.980Z,102848.69
2023-04-18T01:43:55.360Z,102844.66
2023-04-18T01:46:21.766Z,102842.81
2023-04-18T01:48:48.145Z,102841.25
2023-04-18T01:51:14.553Z,102842.09
2023-04-18T01:53:41.760Z,102850.72
2023-04-18T01:56:10.093Z,102844.94
2023-04-18T01:58:36.972Z,102841.91
2023-04-18T02:01:03.902Z,102845.44
2023-04-18T02:03:30.489Z,102844.91
2023-04-18T02:05:57.100Z,102840.56
2023-04-18T02:08:23.486Z,102840.88
2023-04-18T02:10:49.825Z,102835.84
2023-04-18T02:13:16.205Z,102841.53
2023-04-18T02:15:45.787Z,102835.44
2023-04-18T02:18:12.250Z,102842.50
2023-04-18T02:20:39.158Z,102841.50
2023-04-18T02:23:05.633Z,102838.81
2023-04-18T02:25:31.990Z,102835.94
2023-04-18T02:27:58.356Z,102839.25
2023-04-18T02:30:25.668Z,102840.63
2023-04-18T02:32:53.796Z,102836.38
2023-04-18T02:35:21.030Z,102841.03
2023-04-18T02:37:47.474Z,102836.16
2023-04-18T02:40:14.074Z,102843.00
2023-04-18T02:42:40.569Z,102840.66
2023-04-18T02:45:07.815Z,102843.00
2023-04-18T02:47:47.027Z,102841.63
2023-04-18T02:50:17.999Z,102845.94
2023-04-18T02:52:44.335Z,102842.88
2023-04-18T02:55:10.894Z,102843.72
2023-04-18T02:57:37.252Z,102841.03
2023-04-18T03:00:04.597Z,102844.56
2023-04-18T03:02:31.116Z,102845.91
2023-04-18T03:04:57.554Z,102842.19
2023-04-18T03:07:24.010Z,102843.22
2023-04-18T03:09:50.530Z,102839.84
2023-04-18T03:12:16.883Z,102832.94
2023-04-18T03:14:44.475Z,102840.16
2023-04-18T03:17:11.158Z,102835.75
2023-04-18T03:19:37.502Z,102833.38
2023-04-18T03:22:03.846Z,102833.06
2023-04-18T03:24:30.196Z,102833.06
2023-04-18T03:26:56.694Z,102839.06
2023-04-18T03:29:23.162Z,102844.09
2023-04-18T03:31:49.632Z,102837.53
2023-04-18T03:34:16.055Z,102839.69
2023-04-18T03:36:42.612Z,102853.09
2023-04-18T03:39:09.082Z,102847.34
2023-04-18T03:41:35.433Z,102851.03
2023-04-18T03:44:01.740Z,102841.28
2023-04-18T03:46:28.287Z,102850.66
2023-04-18T03:48:54.650Z,102854.31
2023-04-18T03:51:21.038Z,102846.75
2023-04-18T03:53:47.396Z,102854.44
2023-04-18T03:56:13.840Z,102862.06
2023-04-18T03:58:40.283Z,102867.97
2023-04-18T04:01:07.636Z,102854.56
2023-04-18T04:03:34.074Z,102858.34
2023-04-18T04:06:00.888Z,102847.50
2023-04-18T04:08:28.318Z,102857.84
2023-04-18T04:10:54.844Z,102863.84
2023-04-18T04:13:21.148Z,102852.31
2023-04-18T04:15:47.484Z,102855.22
2023-04-18T04:18:13.808Z,102857.28
2023-04-18T04:20:40.118Z,102851.41
2023-04-18T04:23:06.983Z,102854.13
2023-04-18T04:25:34.064Z,102854.66
2023-04-18T04:28:01.421Z,102856.19
2023-04-18T04:30:28.603Z,102858.56
2023-04-18T04:32:55.124Z,102860.06
2023-04-18T04:35:21.621Z,102853.84
2023-04-18T04:37:48.263Z,102857.72
2023-04-18T04:40:15.640Z,102859.72
2023-04-18T04:42:42.260Z,102861.59
2023-04-18T04:45:09.506Z,102865.47
2023-04-18T04:47:36.622Z,102862.31
2023-04-18T04:50:04.330Z,102871.38
2023-04-18T04:52:32.629Z,102867.03
2023-04-18T04:54:59.023Z,102875.44
2023-04-18T04:57:25.560Z,102871.44
2023-04-18T04:59:51.867Z,102875.13
2023-04-18T05:02:18.321Z,102881.53
2023-04-18T05:04:44.716Z,102877.66
2023-04-18T05:07:11.099Z,102870.59
2023-04-18T05:09:37.436Z,102872.13
2023-04-18T05:12:04.385Z,102873.97
2023-04-18T05:14:31.014Z,102874.13
2023-04-18T05:16:57.473Z,102876.50
2023-04-18T05:19:23.884Z,102879.53
2023-04-18T05:21:50.183Z,102876.53
2023-04-18T05:24:16.797Z,102882.44
2023-04-18T05:26:43.445Z,102878.59
2023-04-18T05:29:09.861Z,102884.19
2023-04-18T05:31:36.348Z,102881.50
2023-04-18T05:34:03.042Z,102889.72
2023-04-18T05:36:29.488Z,102891.41
2023-04-18T05:38:55.842Z,102888.06
2023-04-18T05:41:22.874Z,102886.72
2023-04-18T05:43:58.088Z,102889.06
2023-04-18T05:46:31.706Z,102890.13
2023-04-18T05:48:58.089Z,102892.97
2023-04-18T05:51:24.503Z,102895.19
2023-04-18T05:53:51.072Z,102895.84
2023-04-18T05:56:17.450Z,102898.88
2023-04-18T05:58:45.530Z,102905.28
2023-04-18T06:01:14.179Z,102895.72
2023-04-18T06:03:41.511Z,102891.00
2023-04-18T06:06:08.362Z,102895.22
2023-04-18T06:08:34.763Z,102892.19
2023-04-18T06:11:01.132Z,102895.38
2023-04-18T06:13:27.437Z,102893.19
2023-04-18T06:15:54.031Z,102900.59
2023-04-18T06:18:20.414Z,102897.91
2023-04-18T06:20:46.805Z,102901.63
2023-04-18T06:23:13.237Z,102905.16
2023-04-18T06:25:41.569Z,102910.19
2023-04-18T06:28:08.007Z,102905.97
2023-04-18T06:30:34.662Z,102902.91
2023-04-18T06:33:01.076Z,102912.47
2023-04-18T06:35:30.746Z,102908.56
2023-04-18T06:37:57.129Z,102907.81
2023-04-18T06:40:23.452Z,102913.50
2023-04-18T06:42:49.777Z,102915.25
2023-04-18T06:45:16.242Z,102912.84
2023-04-18T06:47:42.596Z,102916.69
2023-04-18T06:50:09.554Z,102912.06
2023-04-18T06:52:40.368Z,102912.28
2023-04-18T06:55:08.961Z,102929.84
2023-04-18T06:57:35.336Z,102918.53
2023-04-18T07:00:01.768Z,102931.16
2023-04-18T07:02:28.218Z,102929.56
2023-04-18T07:04:54.757Z,102927.28
2023-04-18T07:07:21.198Z,102931.63
2023-04-18T07:09:48.461Z,102923.81
2023-04-18T07:12:15.380Z,102929.13
2023-04-18T07:14:42.022Z,102926.94
2023-04-18T07:17:08.575Z,102922.59
2023-04-18T07:19:35.024Z,102930.69
2023-04-18T07:22:01.340Z,102928.63
2023-04-18T07:24:27.748Z,102935.53
2023-04-18T07:26:55.227Z,102929.72
2023-04-18T07:29:21.676Z,102925.94
2023-04-18T07:31:48.417Z,102931.13
2023-04-18T07:34:15.322Z,102922.31
2023-04-18T07:36:42.147Z,102927.63
2023-04-18T07:39:08.606Z,102928.34
2023-04-18T07:41:35.608Z,102928.09
2023-04-18T07:44:02.718Z,102927.34
2023-04-18T07:46:29.421Z,102916.06
2023-04-18T07:48:56.026Z,102919.28
2023-04-18T07:51:25.280Z,102915.97
2023-04-18T07:53:51.740Z,102904.84
2023-04-18T07:56:18.577Z,102916.41
2023-04-18T07:58:44.971Z,102913.00
2023-04-18T08:01:15.229Z,102928.19
2023-04-18T08:03:41.788Z,102921.66
2023-04-18T08:06:08.421Z,102923.63
2023-04-18T08:08:34.729Z,102917.44
2023-04-18T08:11:01.181Z,102912.53
2023-04-18T08:13:27.637Z,102917.81
2023-04-18T08:15:55.773Z,102921.91
2023-04-18T08:18:23.122Z,102932.13
2023-04-18T08:20:49.488Z,102920.13
2023-04-18T08:23:15.950Z,102916.09
2023-04-18T08:25:42.372Z,102913.13
2023-04-18T08:28:08.830Z,102927.03
2023-04-18T08:30:35.353Z,102927.41
2023-04-18T08:33:02.246Z,102932.00
2023-04-18T08:35:28.749Z,102936.47
2023-04-18T08:37:55.241Z,102935.91
2023-04-18T08:40:21.885Z,102940.66
2023-04-18T08:42:49.411Z,102939.50
2023-04-18T08:45:16.194Z,102935.59
2023-04-18T08:47:42.974Z,102940.03
2023-04-18T08:50:10.397Z,102931.59
2023-04-18T08:52:38.703Z,102927.34
2023-04-18T08:55:05.688Z,102927.22
2023-04-18T08:57:33.180Z,102931.34
2023-04-18T09:00:02.282Z,102939.75
2023-04-18T09:02:38.971Z,102936.63
2023-04-18T09:05:19.566Z,102939.03
2023-04-18T09:07:47.437Z,102940.06
2023-04-18T09:10:24.113Z,102927.84
2023-04-18T09:12:50.806Z,102929.50
2023-04-18T09:15:20.218Z,102927.00
2023-04-18T09:17:53.294Z,102930.38
2023-04-18T09:20:41.108Z,102927.56
2023-04-18T09:23:10.764Z,102921.56
2023-04-18T09:25:44.770Z,102922.50
2023-04-18T09:28:30.105Z,102916.38
2023-04-18T09:31:15.319Z,102919.41
2023-04-18T09:33:54.111Z,102921.56
2023-04-18T09:36:24.771Z,102922.88
2023-04-18T09:38:55.534Z,102923.59
2023-04-18T09:41:23.343Z,102919.94
2023-04-18T09:43:50.015Z,102923.38
2023-04-18T09:46:17.764Z,102929.00
2023-04-18T09:48:44.379Z,102926.44
2023-04-18T09:51:14.978Z,102920.28
2023-04-18T09:53:44.869Z,102921.38
2023-04-18T09:56:27.954Z,102923.28
2023-04-18T09:59:07.131Z,102917.81
2023-04-18T10:01:34.033Z,102917.13
2023-04-18T10:04:04.108Z,102922.50
2023-04-18T10:06:33.861Z,102926.47
2023-04-18T10:09:04.162Z,102923.28
2023-04-18T10:11:31.689Z,102924.34
2023-04-18T10:14:01.248Z,102920.59
2023-04-18T10:16:28.688Z,102917.84
2023-04-18T10:18:55.082Z,102923.50
2023-04-18T10:21:21.933Z,102927.72
2023-04-18T10:23:51.127Z,102917.34
2023-04-18T10:26:17.515Z,102916.78
2023-04-18T10:28:57.303Z,102893.28
2023-04-18T10:31:28.614Z,102902.03
2023-04-18T10:36:28.580Z,102898.72
2023-04-18T10:39:25.494Z,102905.00
2023-04-18T10:41:51.989Z,102897.22
2023-04-18T10:44:21.777Z,102894.28
2023-04-18T10:46:48.057Z,102889.91
2023-04-18T10:49:21.908Z,102887.22
2023-04-18T10:51:51.139Z,102879.75
2023-04-18T10:54:21.141Z,102886.44
2023-04-18T10:56:59.004Z,102875.81
2023-04-18T10:59:26.975Z,102872.78
2023-04-18T11:01:59.971Z,102883.38
2023-04-18T11:04:26.572Z,102866.72
2023-04-18T11:06:58.334Z,102869.81
2023-04-18T11:09:24.960Z,102867.28
2023-04-18T11:12:11.328Z,102881.75
2023-04-18T11:14:46.319Z,102872.13
2023-04-18T11:17:26.769Z,102873.25
2023-04-18T11:20:01.300Z,102870.03
2023-04-18T11:22:27.820Z,102868.59
2023-04-18T11:24:59.014Z,102868.00
2023-04-18T11:27:26.833Z,102865.31
2023-04-18T11:29:54.517Z,102861.34
2023-04-18T11:32:23.206Z,102857.53
2023-04-18T11:34:55.881Z,102857.81
2023-04-18T11:37:22.605Z,102852.66
2023-04-18T11:39:51.929Z,102853.19
2023-04-18T11:42:18.317Z,102860.66
2023-04-18T11:44:49.156Z,102855.66
2023-04-18T11:47:30.482Z,102848.94
2023-04-18T11:50:01.785Z,102856.47
2023-04-18T11:52:30.487Z,102851.69
2023-04-18T11:55:14.952Z,102855.78
2023-04-18T11:57:41.800Z,102868.97
2023-04-18T12:00:10.658Z,102862.44
2023-04-18T12:02:46.073Z,102860.38
2023-04-18T12:05:24.162Z,102864.97
2023-04-18T12:07:50.682Z,102859.84
2023-04-18T12:10:19.963Z,102855.81
2023-04-18T12:12:51.314Z,102855.38
2023-04-18T12:15:18.407Z,102849.59
2023-04-18T12:17:46.631Z,102858.69
2023-04-18T12:20:13.426Z,102852.75
2023-04-18T12:22:42.039Z,102857.09
2023-04-18T12:25:24.217Z,102858.06
2023-04-18T12:27:58.146Z,102857.94
2023-04-18T12:30:36.013Z,102857.41
2023-04-18T12:33:04.320Z,102851.53
2023-04-18T12:35:31.881Z,102847.47
2023-04-18T12:38:02.821Z,102841.31
2023-04-18T12:40:30.129Z,102844.31
2023-04-18T12:42:56.884Z,102851.34
2023-04-18T12:45:24.041Z,102851.00
2023-04-18T12:47:52.265Z,102852.88
2023-04-18T12:50:21.818Z,102843.50
2023-04-18T12:52:48.834Z,102846.63
2023-04-18T12:55:15.761Z,102853.63
2023-04-18T12:57:43.086Z,102842.53
2023-04-18T13:00:12.806Z,102847.34
2023-04-18T13:02:42.158Z,102847.91
2023-04-18T13:05:10.890Z,102851.78
2023-04-18T13:07:40.387Z,102852.06
2023-04-18T13:10:08.863Z,102847.53
2023-04-18T13:12:35.530Z,102850.44
2023-04-18T13:15:02.053Z,102853.06
2023-04-18T13:17:28.549Z,102848.31
2023-04-18T13:19:54.905Z,102850.41
2023-04-18T13:22:21.416Z,102849.97
2023-04-18T13:24:48.376Z,102855.59
2023-04-18T13:27:14.840Z,102845.88
2023-04-18T13:29:43.088Z,102846.63
2023-04-18T13:32:09.594Z,102845.22
2023-04-18T13:34:42.325Z,102845.41
2023-04-18T13:37:08.698Z,102836.34
2023-04-18T13:39:35.043Z,102846.59
2023-04-18T13:42:04.521Z,102842.34
2023-04-18T13:44:31.500Z,102846.47
2023-04-18T13:46:57.971Z,102837.78
2023-04-18T13:49:24.441Z,102837.97
2023-04-18T13:51:53.425Z,102836.97
2023-04-18T13:54:20.079Z,102828.72
2023-04-18T13:56:46.486Z,102832.94
2023-04-18T13:59:13.102Z,102834.16
2023-04-18T14:01:39.983Z,102829.38
2023-04-18T14:04:06.780Z,102831.66
2023-04-18T14:06:33.397Z,102829.81
2023-04-18T14:08:59.757Z,102836.13
2023-04-18T14:11:26.387Z,102834.63
2023-04-18T14:13:52.760Z,102830.78
2023-04-18T14:16:19.366Z,102837.91
2023-04-18T14:18:46.167Z,102827.88
2023-04-18T14:21:13.549Z,102824.03
2023-04-18T14:23:39.886Z,102825.63
2023-04-18T14:26:06.197Z,102832.59
2023-04-18T14:28:32.590Z,102827.28
2023-04-18T14:31:01.969Z,102813.22
2023-04-18T14:33:29.238Z,102824.81
2023-04-18T14:35:55.598Z,102803.25
2023-04-18T14:38:21.985Z,102813.19
2023-04-18T14:40:48.478Z,102804.75
2023-04-18T14:43:14.857Z,102812.34
2023-04-18T14:45:41.230Z,102792.75
2023-04-18T14:48:10.215Z,102788.47
2023-04-18T14:50:38.457Z,102798.16
2023-04-18T14:53:05.981Z,102792.72
2023-04-18T14:55:33.266Z,102800.44
2023-04-18T14:58:00.143Z,102795.25
2023-04-18T15:00:27.349Z,102790.69
2023-04-18T15:02:53.949Z,102789.69
2023-04-18T15:05:23.601Z,102790.75
2023-04-18T15:07:51.865Z,102792.16
2023-04-18T15:10:19.608Z,102798.06
2023-04-18T15:12:48.958Z,102800.94
2023-04-18T15:15:15.319Z,102786.03
2023-04-18T15:17:42.057Z,102789.94
2023-04-18T15:20:09.377Z,102790.97
2023-04-18T15:22:36.030Z,102787.72
2023-04-18T15:25:03.924Z,102784.78
2023-04-18T15:27:30.419Z,102774.94
2023-04-18T15:29:56.865Z,102779.53
2023-04-18T15:32:23.408Z,102777.63
2023-04-18T15:34:49.927Z,102772.94
2023-04-18T15:37:16.328Z,102771.94
2023-04-18T15:39:42.653Z,102764.38
2023-04-18T15:42:09.036Z,102758.38
2023-04-18T15:44:35.592Z,102762.34
2023-04-18T15:47:02.055Z,102759.06
2023-04-18T15:49:28.794Z,102770.97
2023-04-18T15:51:56.651Z,102765.69
2023-04-18T15:54:23.075Z,102769.13
2023-04-18T15:56:49.506Z,102764.75
2023-04-18T15:59:15.819Z,102772.09
2023-04-18T16:01:45.236Z,102771.38
2023-04-18T16:04:12.557Z,102763.06
2023-04-18T16:06:39.266Z,102758.00
2023-04-18T16:09:06.858Z,102759.44
2023-04-18T16:11:33.225Z,102761.81
2023-04-18T16:13:59.536Z,102762.84
2023-04-18T16:16:26.546Z,102762.13
2023-04-18T16:18:52.922Z,102757.00
2023-04-18T16:21:19.330Z,102764.06
2023-04-18T16:23:45.821Z,102761.81
2023-04-18T16:26:12.201Z,102775.94
2023-04-18T16:28:38.748Z,102765.63
2023-04-18T16:31:06.357Z,102770.69
2023-04-18T16:33:32.966Z,102768.63
2023-04-18T16:36:02.929Z,102782.88
2023-04-18T16:38:29.488Z,102779.69
2023-04-18T16:40:57.342Z,102777.09
2023-04-18T16:43:24.191Z,102769.81
2023-04-18T16:45:50.614Z,102769.69
2023-04-18T16:48:17.061Z,102770.06
2023-04-18T16:50:45.588Z,102771.44
2023-04-18T16:53:12.017Z,102767.63
2023-04-18T16:55:38.325Z,102771.03
2023-04-18T16:58:04.761Z,102765.25
2023-04-18T17:00:31.269Z,102766.09
2023-04-18T17:02:58.244Z,102766.34
2023-04-18T17:05:25.851Z,102760.56
2023-04-18T17:07:52.509Z,102761.78
2023-04-18T17:10:19.318Z,102758.75
2023-04-18T17:12:48.972Z,102758.69
2023-04-18T17:15:19.148Z,102759.19
2023-04-18T17:17:45.842Z,102766.56
2023-04-18T17:20:12.620Z,102760.50
2023-04-18T17:22:39.089Z,102761.41
2023-04-18T17:25:05.970Z,102759.28
2023-04-18T17:27:32.489Z,102755.50
2023-04-18T17:29:58.955Z,102762.44
2023-04-18T17:32:25.428Z,102771.84
2023-04-18T17:34:52.105Z,102771.34
2023-04-18T17:37:19.890Z,102768.91
2023-04-18T17:39:46.199Z,102774.44
2023-04-18T17:42:12.796Z,102769.50
2023-04-18T17:44:39.785Z,102779.81
2023-04-18T17:47:06.753Z,102770.00
2023-04-18T17:49:35.990Z,102778.31
2023-04-18T17:52:03.389Z,102775.63
2023-04-18T17:54:30.273Z,102776.88
2023-04-18T17:56:57.689Z,102770.81
2023-04-18T17:59:24.036Z,102771.03
2023-04-18T18:01:50.777Z,102766.06
2023-04-18T18:04:17.308Z,102776.22
2023-04-18T18:06:54.092Z,102781.91
2023-04-18T18:09:20.590Z,102776.66
2023-04-18T18:11:46.925Z,102777.09
2023-04-18T18:14:13.569Z,102772.31
2023-04-18T18:16:40.169Z,102782.63
2023-04-18T18:19:09.584Z,102784.78
2023-04-18T18:21:36.462Z,102779.31
2023-04-18T18:24:03.013Z,102779.97
2023-04-18T18:26:29.348Z,102781.84
2023-04-18T18:28:55.721Z,102784.97
2023-04-18T18:31:24.811Z,102781.25
2023-04-18T18:33:52.005Z,102790.25
2023-04-18T18:36:18.418Z,102782.50
2023-04-18T18:38:44.868Z,102786.69
2023-04-18T18:41:11.202Z,102789.63
2023-04-18T18:43:37.707Z,102794.03
2023-04-18T18:46:04.186Z,102798.19
2023-04-18T18:48:32.607Z,102799.84
2023-04-18T18:50:58.925Z,102798.19
2023-04-18T18:53:25.378Z,102804.25
2023-04-18T18:55:51.765Z,102810.91
2023-04-18T18:58:18.092Z,102807.09
2023-04-18T19:00:45.930Z,102812.09
2023-04-18T19:03:12.654Z,102819.16
2023-04-18T19:05:39.121Z,102816.84
2023-04-18T19:08:06.506Z,102827.63
2023-04-18T19:10:32.984Z,102825.66
2023-04-18T19:13:00.212Z,102833.28
2023-04-18T19:15:26.749Z,102822.66
2023-04-18T19:17:53.099Z,102832.63
2023-04-18T19:20:19.601Z,102836.84
2023-04-18T19:22:46.002Z,102837.09
2023-04-18T19:25:12.411Z,102840.41
2023-04-18T19:27:38.749Z,102841.66
2023-04-18T19:30:05.854Z,102847.47
2023-04-18T19:32:32.595Z,102844.78
2023-04-18T19:34:59.907Z,102848.31
2023-04-18T19:37:26.395Z,102842.72
2023-04-18T19:39:52.972Z,102856.84
2023-04-18T19:42:19.542Z,102860.72
2023-04-18T19:44:45.925Z,102860.25
2023-04-18T19:47:12.257Z,102863.53
2023-04-18T19:49:38.762Z,102869.34
2023-04-18T19:52:06.047Z,102870.19
2023-04-18T19:54:35.731Z,102867.47
2023-04-18T19:57:02.649Z,102867.69
2023-04-18T19:59:28.975Z,102871.59
2023-04-18T20:01:56.681Z,102875.75
2023-04-18T20:04:25.587Z,102871.75
2023-04-18T20:06:53.671Z,102880.94
2023-04-18T20:09:20.063Z,102876.06
2023-04-18T20:11:47.793Z,102881.63
2023-04-18T20:14:14.172Z,102878.44
2023-04-18T20:16:42.708Z,102877.00
2023-04-18T20:19:12.441Z,102882.38
2023-04-18T20:21:39.185Z,102883.16
2023-04-18T20:24:06.702Z,102882.78
2023-04-18T20:26:33.203Z,102880.81
2023-04-18T20:28:59.605Z,102889.72
2023-04-18T20:31:25.970Z,102879.34
2023-04-18T20:33:52.279Z,102892.44
2023-04-18T20:36:18.875Z,102892.63
2023-04-18T20:38:45.293Z,102889.47
2023-04-18T20:41:17.954Z,102893.53
2023-04-18T20:43:45.936Z,102886.72
2023-04-18T20:46:12.945Z,102888.63
2023-04-18T20:48:40.197Z,102897.25
2023-04-18T20:51:06.716Z,102898.47
2023-04-18T20:53:33.192Z,102894.50
2023-04-18T20:56:02.113Z,102894.88
2023-04-18T20:58:29.607Z,102898.59
2023-04-18T21:00:55.949Z,102897.09
2023-04-18T21:03:22.948Z,102898.72
2023-04-18T21:05:49.455Z,102897.84
2023-04-18T21:08:15.871Z,102895.41
2023-04-18T21:10:42.226Z,102901.03
2023-04-18T21:13:09.269Z,102900.31
2023-04-18T21:15:36.031Z,102905.44
2023-04-18T21:18:02.469Z,102900.19
2023-04-18T21:20:29.005Z,102903.75
2023-04-18T21:22:55.593Z,102902.44
2023-04-18T21:25:22.155Z,102907.03
2023-04-18T21:27:50.403Z,102907.56
2023-04-18T21:30:16.760Z,102899.84
2023-04-18T21:32:43.110Z,102903.84
2023-04-18T21:35:09.993Z,102916.44
2023-04-18T21:37:36.381Z,102901.25
2023-04-18T21:40:04.000Z,102914.09
2023-04-18T21:42:30.395Z,102910.38
2023-04-18T21:44:56.705Z,102914.09
2023-04-18T21:47:23.109Z,102903.00
2023-04-18T21:49:49.630Z,102911.50
2023-04-18T21:52:15.970Z,102907.97
2023-04-18T21:54:42.424Z,102907.88
2023-04-18T21:57:08.792Z,102912.16
2023-04-18T21:59:35.121Z,102916.94
2023-04-18T22:02:01.551Z,102910.19
2023-04-18T22:04:29.008Z,102905.00
2023-04-18T22:06:55.920Z,102911.41
2023-04-18T22:09:22.521Z,102909.28
2023-04-18T22:11:51.084Z,102904.78
2023-04-18T22:14:20.058Z,102899.00
2023-04-18T22:16:46.444Z,102901.06
2023-04-18T22:19:14.017Z,102905.50
2023-04-18T22:21:40.528Z,102900.09
2023-04-18T22:24:07.600Z,102906.19
2023-04-18T22:26:34.051Z,102898.97
2023-04-18T22:29:00.469Z,102905.28
2023-04-18T22:31:27.174Z,102895.69
2023-04-18T22:33:53.570Z,102905.38
2023-04-18T22:36:19.984Z,102897.75
2023-04-18T22:38:46.506Z,102902.69
2023-04-18T22:41:12.996Z,102905.09
2023-04-18T22:43:39.373Z,102898.00
2023-04-18T22:46:05.935Z,102906.19
2023-04-18T22:48:34.980Z,102903.84
2023-04-18T22:51:01.906Z,102913.13
2023-04-18T22:53:28.539Z,102910.72
2023-04-18T22:55:54.931Z,102907.53
2023-04-18T22:58:21.524Z,102915.00
2023-04-18T23:00:47.847Z,102917.41
2023-04-18T23:03:14.348Z,102919.38
2023-04-18T23:05:41.364Z,102909.22
2023-04-18T23:08:08.018Z,102915.84
2023-04-18T23:10:34.501Z,102919.38
2023-04-18T23:13:00.937Z,102921.91
2023-04-18T23:15:27.411Z,102923.47
2023-04-18T23:17:53.935Z,102939.38
2023-04-18T23:20:21.260Z,102929.00
2023-04-18T23:22:51.605Z,102934.75
2023-04-18T23:25:19.379Z,102928.00
2023-04-18T23:27:46.004Z,102925.63
2023-04-18T23:30:12.633Z,102928.16
2023-04-18T23:32:39.115Z,102930.13
2023-04-18T23:35:06.420Z,102928.94
2023-04-18T23:37:33.306Z,102924.66
2023-04-18T23:40:00.515Z,102925.50
2023-04-18T23:42:27.240Z,102923.94
2023-04-18T23:44:54.505Z,102922.44
2023-04-18T23:47:21.418Z,102925.81
2023-04-18T23:49:47.907Z,102936.03
2023-04-18T23:52:14.608Z,102924.19
2023-04-18T23:54:41.098Z,102924.38
2023-04-18T23:57:07.569Z,102926.59
2023-04-18T23:59:33.905Z,102922.56
